createdAt,value
2018-04-22T00:02:04.702Z,23.80
2018-04-22T00:04:33.948Z,22.87
2018-04-22T00:07:05.153Z,23.60
2018-04-22T00:09:37.020Z,24.23
2018-04-22T00:12:06.851Z,24.73
2018-04-22T00:14:36.056Z,23.60
2018-04-22T00:17:05.296Z,25.53
2018-04-22T00:19:36.602Z,25.73
2018-04-22T00:22:05.924Z,26.97
2018-04-22T00:24:36.392Z,25.20
2018-04-22T00:27:07.308Z,25.47
2018-04-22T00:29:39.947Z,24.50
2018-04-22T00:32:11.409Z,23.97
2018-04-22T00:34:41.300Z,25.37
2018-04-22T00:37:12.193Z,24.43
2018-04-22T00:42:28.197Z,26.03
2018-04-22T00:45:01.430Z,31.33
2018-04-22T00:47:31.079Z,30.37
2018-04-22T00:50:03.906Z,31.43
2018-04-22T00:52:33.110Z,30.70
2018-04-22T00:55:02.346Z,29.73
2018-04-22T00:57:31.530Z,29.73
2018-04-22T01:00:01.820Z,30.50
2018-04-22T01:02:31.093Z,31.67
2018-04-22T01:05:01.535Z,31.57
2018-04-22T01:07:30.922Z,30.57
2018-04-22T01:10:00.955Z,30.07
2018-04-22T01:12:30.961Z,31.20
2018-04-22T01:15:00.155Z,29.80
2018-04-22T01:17:29.282Z,29.30
2018-04-22T01:19:58.494Z,31.03
2018-04-22T01:22:27.671Z,27.10
2018-04-22T01:24:56.911Z,29.80
2018-04-22T01:27:26.111Z,30.40
2018-04-22T01:29:55.220Z,29.63
2018-04-22T01:32:24.448Z,30.07
2018-04-22T01:34:53.639Z,29.57
2018-04-22T01:37:22.749Z,30.47
2018-04-22T01:39:51.858Z,30.93
2018-04-22T01:42:21.061Z,31.07
2018-04-22T01:44:50.259Z,30.47
2018-04-22T01:47:19.835Z,31.53
2018-04-22T01:49:49.077Z,31.33
2018-04-22T01:52:18.284Z,32.00
2018-04-22T01:54:48.640Z,31.57
2018-04-22T01:57:19.003Z,32.60
2018-04-22T01:59:48.175Z,31.37
2018-04-22T02:02:17.353Z,32.20
2018-04-22T02:04:46.629Z,33.00
2018-04-22T02:07:15.802Z,31.70
2018-04-22T02:09:45.004Z,32.83
2018-04-22T02:12:14.309Z,35.13
2018-04-22T02:14:43.446Z,33.97
2018-04-22T02:17:13.406Z,34.07
2018-04-22T02:19:43.305Z,33.27
2018-04-22T02:22:13.142Z,33.87
2018-04-22T02:24:42.282Z,33.93
2018-04-22T02:27:11.462Z,32.70
2018-04-22T02:29:41.886Z,33.30
2018-04-22T02:32:11.195Z,35.53
2018-04-22T02:34:40.372Z,35.97
2018-04-22T02:37:09.538Z,36.47
2018-04-22T02:39:38.652Z,39.57
2018-04-22T02:42:08.326Z,39.77
2018-04-22T02:44:37.549Z,37.60
2018-04-22T02:47:06.770Z,23.00
2018-04-22T02:49:36.137Z,20.63
2018-04-22T02:52:06.246Z,20.97
2018-04-22T02:54:35.417Z,21.50
2018-04-22T02:57:04.553Z,23.33
2018-04-22T02:59:33.709Z,20.93
2018-04-22T03:02:02.877Z,20.03
2018-04-22T03:04:32.053Z,22.87
2018-04-22T03:07:01.181Z,21.33
2018-04-22T03:09:30.505Z,18.83
2018-04-22T03:11:59.658Z,18.30
2018-04-22T03:14:28.895Z,16.90
2018-04-22T03:16:58.012Z,18.03
2018-04-22T03:19:27.185Z,17.30
2018-04-22T03:21:56.576Z,13.97
2018-04-22T03:24:26.156Z,14.93
2018-04-22T03:26:55.285Z,12.50
2018-04-22T03:29:24.458Z,11.87
2018-04-22T03:31:53.625Z,11.53
2018-04-22T03:34:22.772Z,10.10
2018-04-22T03:36:52.789Z,9.80
2018-04-22T03:39:21.974Z,11.97
2018-04-22T03:41:51.158Z,11.60
2018-04-22T03:44:20.321Z,10.33
2018-04-22T03:46:49.455Z,11.17
2018-04-22T03:49:18.576Z,9.97
2018-04-22T03:51:47.738Z,10.63
2018-04-22T03:54:16.935Z,10.67
2018-04-22T03:56:46.300Z,11.10
2018-04-22T03:59:15.568Z,11.10
2018-04-22T04:01:45.509Z,12.03
2018-04-22T04:04:15.498Z,11.70
2018-04-22T04:06:44.674Z,11.50
2018-04-22T04:09:13.904Z,12.30
2018-04-22T04:11:43.197Z,12.20
2018-04-22T04:14:12.708Z,11.87
2018-04-22T04:16:42.012Z,11.80
2018-04-22T04:19:22.486Z,11.03
2018-04-22T04:22:03.130Z,10.90
2018-04-22T04:24:43.918Z,12.77
2018-04-22T04:27:24.290Z,12.57
2018-04-22T04:29:53.683Z,19.23
2018-04-22T04:32:22.874Z,12.30
2018-04-22T04:34:52.954Z,11.10
2018-04-22T04:37:22.163Z,12.73
2018-04-22T04:39:51.291Z,11.17
2018-04-22T04:42:20.488Z,11.30
2018-04-22T04:47:42.763Z,11.03
2018-04-22T04:50:11.919Z,11.07
2018-04-22T04:52:41.045Z,11.13
2018-04-22T04:55:10.421Z,11.60
2018-04-22T04:57:39.694Z,10.70
2018-04-22T05:00:09.732Z,10.77
2018-04-22T05:02:39.647Z,12.23
2018-04-22T05:05:09.725Z,10.60
2018-04-22T05:07:38.894Z,10.60
2018-04-22T05:10:08.127Z,11.63
2018-04-22T05:12:37.268Z,11.50
2018-04-22T05:15:06.610Z,11.97
2018-04-22T05:17:35.792Z,12.43
2018-04-22T05:20:05.047Z,12.23
2018-04-22T05:22:34.199Z,11.97
2018-04-22T05:25:03.429Z,11.57
2018-04-22T05:27:32.578Z,12.23
2018-04-22T05:30:01.838Z,11.93
2018-04-22T05:32:31.027Z,12.60
2018-04-22T05:35:01.289Z,12.93
2018-04-22T05:37:30.430Z,12.63
2018-04-22T05:40:00.421Z,12.80
2018-04-22T05:42:29.597Z,12.30
2018-04-22T05:44:58.778Z,12.70
2018-04-22T05:47:28.037Z,13.37
2018-04-22T05:49:57.269Z,14.03
2018-04-22T05:52:26.419Z,14.73
2018-04-22T05:54:55.632Z,14.57
2018-04-22T05:57:24.851Z,13.80
2018-04-22T05:59:54.029Z,14.43
2018-04-22T06:02:23.152Z,15.43
2018-04-22T06:04:52.338Z,14.90
2018-04-22T06:07:21.533Z,15.43
2018-04-22T06:09:50.669Z,16.00
2018-04-22T06:12:19.763Z,16.50
2018-04-22T06:14:48.902Z,18.47
2018-04-22T06:17:18.219Z,17.10
2018-04-22T06:19:47.448Z,16.17
2018-04-22T06:22:16.572Z,16.60
2018-04-22T06:24:45.716Z,15.03
2018-04-22T06:27:14.930Z,14.87
2018-04-22T06:29:44.054Z,14.67
2018-04-22T06:32:13.194Z,14.10
2018-04-22T06:34:42.361Z,14.10
2018-04-22T06:37:11.834Z,14.30
2018-04-22T06:39:41.067Z,14.03
2018-04-22T06:42:10.249Z,13.97
2018-04-22T06:44:39.371Z,13.83
2018-04-22T06:47:08.487Z,12.40
2018-04-22T06:49:37.602Z,13.17
2018-04-22T06:52:06.825Z,12.50
2018-04-22T06:54:36.003Z,12.80
2018-04-22T06:57:05.270Z,12.67
2018-04-22T06:59:35.210Z,12.97
2018-04-22T07:02:04.366Z,13.03
2018-04-22T07:04:34.219Z,12.27
2018-04-22T07:07:03.282Z,13.37
2018-04-22T07:09:33.705Z,12.90
2018-04-22T07:12:02.873Z,12.33
2018-04-22T07:14:32.221Z,13.13
2018-04-22T07:17:01.380Z,13.90
2018-04-22T07:19:30.578Z,14.67
2018-04-22T07:21:59.744Z,13.60
2018-04-22T07:24:28.904Z,13.83
2018-04-22T07:26:59.240Z,11.73
2018-04-22T07:29:28.349Z,14.50
2018-04-22T07:31:57.546Z,13.30
2018-04-22T07:34:26.726Z,31.47
2018-04-22T07:36:56.635Z,32.70
2018-04-22T07:39:26.023Z,25.77
2018-04-22T07:41:55.180Z,15.20
2018-04-22T07:44:24.294Z,11.17
2018-04-22T07:46:53.496Z,10.40
2018-04-22T07:49:23.349Z,10.63
2018-04-22T07:51:52.603Z,11.13
2018-04-22T07:54:21.709Z,10.17
2018-04-22T07:56:50.802Z,10.30
2018-04-22T07:59:20.506Z,11.67
2018-04-22T08:01:49.679Z,11.80
2018-04-22T08:04:19.327Z,14.23
2018-04-22T08:06:48.478Z,15.77
2018-04-22T08:09:17.605Z,15.17
2018-04-22T08:11:48.101Z,14.90
2018-04-22T08:14:17.171Z,15.10
2018-04-22T08:16:46.319Z,13.33
2018-04-22T08:19:15.421Z,12.73
2018-04-22T08:21:44.631Z,12.40
2018-04-22T08:24:13.928Z,12.17
2018-04-22T08:26:43.848Z,13.27
2018-04-22T08:29:12.959Z,13.23
2018-04-22T08:31:42.251Z,14.00
2018-04-22T08:34:11.417Z,12.33
2018-04-22T08:36:40.615Z,12.30
2018-04-22T08:39:09.892Z,12.23
2018-04-22T08:41:39.227Z,12.43
2018-04-22T08:44:08.387Z,10.93
2018-04-22T08:46:38.297Z,11.17
2018-04-22T08:49:08.195Z,11.80
2018-04-22T08:51:37.363Z,12.00
2018-04-22T08:54:06.459Z,10.27
2018-04-22T08:56:35.542Z,11.30
2018-04-22T08:59:04.839Z,10.47
2018-04-22T09:01:34.505Z,10.60
2018-04-22T09:04:03.663Z,11.20
2018-04-22T09:06:32.781Z,11.27
2018-04-22T09:09:01.937Z,12.07
2018-04-22T09:11:31.053Z,12.80
2018-04-22T09:14:00.332Z,13.07
2018-04-22T09:16:29.556Z,14.20
2018-04-22T09:18:58.714Z,15.27
2018-04-22T09:21:27.826Z,15.33
2018-04-22T09:23:56.995Z,15.50
2018-04-22T09:26:26.146Z,15.23
2018-04-22T09:28:56.306Z,16.17
2018-04-22T09:31:25.429Z,15.70
2018-04-22T09:33:54.637Z,15.57
2018-04-22T09:36:23.800Z,16.00
2018-04-22T09:38:52.919Z,15.63
2018-04-22T09:41:22.214Z,16.03
2018-04-22T09:43:52.319Z,15.60
2018-04-22T09:46:21.447Z,16.80
2018-04-22T09:48:50.635Z,16.77
2018-04-22T09:51:19.762Z,17.60
2018-04-22T09:53:49.626Z,17.07
2018-04-22T09:56:18.780Z,18.67
2018-04-22T09:58:47.925Z,19.03
2018-04-22T10:01:20.990Z,20.23
2018-04-22T10:03:50.905Z,18.57
2018-04-22T10:06:20.017Z,19.93
2018-04-22T10:08:49.192Z,20.23
2018-04-22T10:11:18.292Z,20.57
2018-04-22T10:13:47.515Z,19.70
2018-04-22T10:16:16.646Z,20.17
2018-04-22T10:18:45.885Z,21.47
2018-04-22T10:21:14.977Z,21.17
2018-04-22T10:23:44.099Z,18.20
2018-04-22T10:26:13.317Z,18.63
2018-04-22T10:28:43.216Z,18.57
2018-04-22T10:31:12.322Z,17.97
2018-04-22T10:33:41.536Z,18.60
2018-04-22T10:36:11.507Z,19.67
2018-04-22T10:38:40.922Z,18.83
2018-04-22T10:41:10.070Z,18.53
2018-04-22T10:43:39.189Z,19.20
2018-04-22T10:46:08.350Z,18.60
2018-04-22T10:48:37.419Z,21.63
2018-04-22T10:51:06.569Z,19.13
2018-04-22T10:53:35.678Z,17.93
2018-04-22T10:56:04.824Z,16.03
2018-04-22T10:58:34.053Z,19.00
2018-04-22T11:01:03.365Z,18.00
2018-04-22T11:03:32.511Z,18.83
2018-04-22T11:06:02.839Z,21.63
2018-04-22T11:08:31.924Z,21.67
2018-04-22T11:11:01.281Z,21.10
2018-04-22T11:13:30.470Z,21.50
2018-04-22T11:15:59.554Z,21.80
2018-04-22T11:18:29.471Z,20.20
2018-04-22T11:20:58.656Z,20.77
2018-04-22T11:23:27.857Z,23.43
2018-04-22T11:25:57.883Z,22.47
2018-04-22T11:28:27.083Z,24.27
2018-04-22T11:30:56.482Z,23.70
2018-04-22T11:33:25.737Z,24.67
2018-04-22T11:35:54.922Z,24.17
2018-04-22T11:38:24.135Z,22.97
2018-04-22T11:40:53.298Z,24.70
2018-04-22T11:43:23.010Z,23.60
2018-04-22T11:45:52.189Z,23.23
2018-04-22T11:48:25.106Z,24.07
2018-04-22T11:50:54.635Z,23.87
2018-04-22T11:53:24.771Z,24.77
2018-04-22T11:55:54.246Z,21.60
2018-04-22T11:58:23.888Z,20.37
2018-04-22T12:00:53.220Z,21.70
2018-04-22T12:03:23.569Z,20.60
2018-04-22T12:05:52.864Z,20.97
2018-04-22T12:08:22.902Z,20.97
2018-04-22T12:10:52.365Z,23.20
2018-04-22T12:13:23.199Z,22.90
2018-04-22T12:15:52.627Z,22.50
2018-04-22T12:18:23.523Z,22.63
2018-04-22T12:20:52.933Z,22.27
2018-04-22T12:23:23.311Z,22.07
2018-04-22T12:25:55.914Z,22.33
2018-04-22T12:28:25.181Z,19.00
2018-04-22T12:30:54.632Z,20.53
2018-04-22T12:33:23.928Z,20.93
2018-04-22T12:35:55.411Z,23.60
2018-04-22T12:38:24.919Z,22.10
2018-04-22T12:40:54.317Z,20.53
2018-04-22T12:43:23.638Z,18.47
2018-04-22T12:45:53.022Z,18.17
2018-04-22T12:48:23.946Z,21.73
2018-04-22T12:50:55.939Z,19.00
2018-04-22T12:53:26.653Z,18.97
2018-04-22T12:55:56.745Z,19.57
2018-04-22T12:58:27.020Z,18.70
2018-04-22T13:01:01.909Z,23.33
2018-04-22T13:03:32.440Z,19.67
2018-04-22T13:09:42.978Z,15.90
2018-04-22T13:12:24.201Z,16.87
2018-04-22T13:14:53.749Z,18.00
2018-04-22T13:17:23.707Z,17.30
2018-04-22T13:19:53.378Z,17.67
2018-04-22T13:22:22.750Z,17.13
2018-04-22T13:24:52.069Z,15.97
2018-04-22T13:27:22.174Z,19.70
2018-04-22T13:29:51.491Z,18.60
2018-04-22T13:32:20.763Z,20.37
2018-04-22T13:34:50.192Z,19.20
2018-04-22T13:37:23.304Z,18.87
2018-04-22T13:39:52.829Z,18.80
2018-04-22T13:48:58.554Z,20.73
2018-04-22T13:51:30.382Z,19.73
2018-04-22T13:53:59.990Z,21.97
2018-04-22T13:56:29.495Z,19.93
2018-04-22T13:58:58.971Z,19.20
2018-04-22T14:01:28.401Z,18.17
2018-04-22T14:03:57.920Z,19.90
2018-04-22T14:06:27.104Z,21.57
2018-04-22T14:08:56.364Z,20.80
2018-04-22T14:11:26.227Z,25.40
2018-04-22T14:13:55.845Z,22.40
2018-04-22T14:16:25.316Z,23.30
2018-04-22T14:18:55.040Z,22.80
2018-04-22T14:21:24.766Z,21.53
2018-04-22T14:23:54.373Z,21.90
2018-04-22T14:26:23.666Z,21.50
2018-04-22T14:28:53.166Z,21.07
2018-04-22T14:31:22.435Z,20.67
2018-04-22T14:33:53.148Z,20.80
2018-04-22T14:36:22.659Z,21.40
2018-04-22T14:38:53.123Z,19.60
2018-04-22T14:41:22.407Z,20.50
2018-04-22T14:44:02.822Z,21.83
2018-04-22T14:46:32.041Z,19.60
2018-04-22T14:49:07.035Z,20.37
2018-04-22T14:51:36.484Z,19.27
2018-04-22T14:54:05.674Z,19.57
2018-04-22T14:56:34.765Z,19.00
2018-04-22T14:59:03.904Z,20.37
2018-04-22T15:01:33.978Z,18.47
2018-04-22T15:04:03.141Z,18.83
2018-04-22T15:06:32.366Z,17.70
2018-04-22T15:09:01.618Z,17.80
2018-04-22T15:11:30.828Z,18.03
2018-04-22T15:14:03.832Z,17.20
2018-04-22T15:16:33.079Z,17.37
2018-04-22T15:19:03.025Z,18.13
2018-04-22T15:21:32.144Z,19.00
2018-04-22T15:24:01.288Z,17.83
2018-04-22T15:26:30.553Z,20.17
2018-04-22T15:28:59.745Z,18.30
2018-04-22T15:31:35.577Z,19.07
2018-04-22T15:34:06.693Z,19.50
2018-04-22T15:36:46.038Z,19.53
2018-04-22T15:39:15.130Z,20.57
2018-04-22T15:41:44.280Z,20.67
2018-04-22T15:44:14.040Z,20.43
2018-04-22T15:46:43.391Z,20.00
2018-04-22T15:49:12.844Z,20.43
2018-04-22T15:51:43.196Z,21.83
2018-04-22T15:54:12.485Z,20.43
2018-04-22T15:56:42.598Z,20.77
2018-04-22T15:59:11.722Z,19.20
2018-04-22T16:01:40.868Z,20.67
2018-04-22T16:04:10.141Z,25.87
2018-04-22T16:06:39.297Z,22.30
2018-04-22T16:09:10.428Z,22.47
2018-04-22T16:11:54.720Z,21.67
2018-04-22T16:14:24.010Z,23.63
2018-04-22T16:16:53.366Z,22.93
2018-04-22T16:19:34.586Z,22.13
2018-04-22T16:22:08.540Z,24.03
2018-04-22T16:24:37.850Z,21.43
2018-04-22T16:27:08.155Z,22.13
2018-04-22T16:29:40.276Z,22.27
2018-04-22T16:32:28.207Z,20.83
2018-04-22T16:35:04.725Z,22.42
2018-04-22T16:37:34.834Z,24.17
2018-04-22T16:40:08.178Z,24.63
2018-04-22T16:45:12.675Z,26.07
2018-04-22T16:50:15.013Z,26.00
2018-04-22T16:52:46.657Z,23.40
2018-04-22T16:55:51.181Z,24.00
2018-04-22T16:58:23.699Z,24.70
2018-04-22T17:04:33.997Z,24.37
2018-04-22T17:12:18.123Z,25.77
2018-04-22T17:14:48.827Z,25.07
2018-04-22T17:17:20.974Z,26.40
2018-04-22T17:19:51.995Z,25.37
2018-04-22T17:22:21.994Z,25.37
2018-04-22T17:24:51.577Z,26.27
2018-04-22T17:27:23.581Z,26.00
2018-04-22T17:29:55.301Z,25.23
2018-04-22T17:32:35.639Z,22.87
2018-04-22T17:35:05.713Z,24.05
2018-04-22T17:37:38.529Z,23.00
2018-04-22T17:40:13.685Z,24.45
2018-04-22T17:42:43.349Z,23.75
2018-04-22T17:45:31.875Z,22.67
2018-04-22T17:48:03.724Z,24.40
2018-04-22T17:50:33.035Z,23.38
2018-04-22T17:53:02.390Z,22.97
2018-04-22T17:55:31.719Z,23.80
2018-04-22T17:58:05.445Z,23.80
2018-04-22T18:00:34.803Z,22.80
2018-04-22T18:03:11.770Z,22.53
2018-04-22T18:05:54.779Z,22.77
2018-04-22T18:08:25.142Z,23.20
2018-04-22T18:11:13.000Z,21.77
2018-04-22T18:17:12.764Z,22.20
2018-04-22T18:20:26.308Z,19.97
2018-04-22T18:22:58.435Z,23.13
2018-04-22T18:25:38.499Z,19.15
2018-04-22T18:28:26.183Z,18.30
2018-04-22T18:30:57.184Z,19.25
2018-04-22T18:33:28.932Z,17.25
2018-04-22T18:36:01.193Z,21.85
2018-04-22T18:38:34.701Z,18.95
2018-04-22T18:43:45.549Z,16.73
2018-04-22T18:46:21.631Z,15.45
2018-04-22T18:48:51.186Z,16.05
2018-04-22T18:51:24.721Z,16.08
2018-04-22T18:56:29.891Z,14.23
2018-04-22T18:59:04.502Z,18.12
2018-04-22T19:07:14.423Z,13.05
2018-04-22T19:09:51.744Z,14.38
2018-04-22T19:15:22.463Z,14.48
2018-04-22T19:18:12.604Z,13.60
2018-04-22T19:20:47.255Z,15.07
2018-04-22T19:23:16.612Z,14.05
2018-04-22T19:25:56.032Z,13.57
2018-04-22T19:28:26.552Z,14.43
2018-04-22T19:30:57.876Z,30.62
2018-04-22T19:33:28.282Z,19.65
2018-04-22T19:35:57.767Z,28.12
2018-04-22T19:38:28.844Z,25.45
2018-04-22T19:40:58.340Z,26.20
2018-04-22T19:43:30.747Z,27.13
2018-04-22T19:46:00.532Z,26.37
2018-04-22T19:48:32.965Z,26.52
2018-04-22T19:51:03.462Z,27.65
2018-04-22T19:56:12.013Z,29.70
2018-04-22T19:58:41.402Z,29.67
2018-04-22T20:01:11.567Z,30.50
2018-04-22T20:08:54.379Z,36.47
2018-04-22T20:11:23.868Z,34.60
2018-04-22T20:13:54.297Z,33.73
2018-04-22T20:16:26.040Z,33.30
2018-04-22T20:18:59.045Z,31.13
2018-04-22T20:21:29.642Z,32.00
2018-04-22T20:24:00.214Z,33.77
2018-04-22T20:26:29.464Z,34.40
2018-04-22T20:28:58.596Z,34.67
2018-04-22T20:31:33.687Z,35.80
2018-04-22T20:34:05.686Z,35.40
2018-04-22T20:36:36.858Z,32.57
2018-04-22T20:39:08.089Z,32.93
2018-04-22T20:41:42.478Z,33.47
2018-04-22T20:44:12.960Z,33.10
2018-04-22T20:46:44.090Z,35.30
2018-04-22T20:49:13.842Z,36.30
2018-04-22T20:51:43.564Z,38.67
2018-04-22T20:54:13.045Z,39.77
2018-04-22T20:56:44.296Z,38.00
2018-04-22T20:59:14.444Z,41.83
2018-04-22T21:01:43.992Z,41.90
2018-04-22T21:04:15.426Z,37.30
2018-04-22T21:06:45.228Z,39.53
2018-04-22T21:09:17.140Z,41.63
2018-04-22T21:11:49.112Z,37.47
2018-04-22T21:14:18.812Z,34.90
2018-04-22T21:19:26.297Z,29.37
2018-04-22T21:21:57.630Z,27.43
2018-04-22T21:27:21.682Z,27.17
2018-04-22T21:29:53.641Z,25.07
2018-04-22T21:32:23.930Z,19.87
2018-04-22T21:34:53.360Z,23.40
2018-04-22T21:37:24.495Z,19.90
2018-04-22T21:39:59.390Z,19.20
2018-04-22T21:42:29.714Z,22.47
2018-04-22T21:45:02.252Z,26.17
2018-04-22T21:47:37.043Z,27.23
2018-04-22T21:50:11.115Z,26.10
2018-04-22T21:52:50.752Z,28.83
2018-04-22T21:55:21.672Z,31.40
2018-04-22T21:57:52.387Z,31.07
2018-04-22T22:00:36.581Z,27.27
2018-04-22T22:03:12.983Z,31.60
2018-04-22T22:05:43.483Z,33.17
2018-04-22T22:11:42.639Z,40.67
2018-04-22T22:14:30.260Z,41.00
2018-04-22T22:17:03.145Z,43.43
2018-04-22T22:19:35.608Z,43.53
2018-04-22T22:22:19.360Z,45.87
2018-04-22T22:24:53.382Z,47.17
2018-04-22T22:28:06.378Z,44.43
2018-04-22T22:36:53.652Z,53.67
2018-04-22T22:39:22.877Z,55.63
2018-04-22T22:41:52.787Z,51.10
2018-04-22T22:44:28.819Z,51.23
2018-04-22T22:49:38.130Z,48.93
2018-04-22T22:52:08.426Z,49.23
2018-04-22T22:54:38.013Z,48.77
2018-04-22T22:57:19.671Z,46.13
2018-04-22T22:59:51.661Z,45.47
2018-04-22T23:02:22.030Z,42.17
2018-04-22T23:04:51.241Z,38.30
2018-04-22T23:07:30.974Z,37.77
2018-04-22T23:10:00.328Z,34.97
2018-04-22T23:12:33.922Z,35.53
2018-04-22T23:15:03.725Z,37.47
2018-04-22T23:17:33.927Z,37.93
2018-04-22T23:20:03.653Z,37.43
2018-04-22T23:22:33.796Z,37.63
2018-04-22T23:25:06.437Z,40.80
2018-04-22T23:27:37.091Z,42.90
2018-04-22T23:30:07.364Z,54.73
2018-04-22T23:32:54.685Z,60.13
2018-04-22T23:35:38.388Z,62.37
2018-04-22T23:38:07.833Z,66.33
2018-04-22T23:45:53.225Z,55.37
2018-04-22T23:48:22.781Z,53.13
2018-04-22T23:50:53.215Z,55.40
2018-04-22T23:53:22.641Z,40.87
2018-04-22T23:55:53.575Z,28.10
2018-04-22T23:58:22.899Z,25.97
